VAU weather

Vatukoula Airport
Vatukoula, Western, Fiji

Public forecast

Using degrees Celsius for public forecast. Weather courtesy of forecast.io.

Closest aviation weather report (METAR) to Vatukoula Airport

Closest report is Nadi International Airport, 27.5 nm (50.9 km) SW. Retrieved 2020/04/08 07:00 UTC (56 minutes ago):

NFFN 080700Z 27015KT 8000 -SHRA BKN020 BKN040 OVC100 27/25 Q1003 TEMPO 3000 TSRA

Closest aviation forecast (TAF) to Vatukoula Airport

Closest forecast is Nadi International Airport, 27.5 nm (50.9 km) SW. Retrieved 2020/04/08 06:00 UTC (2 hours ago):

TAF NFFN 080525Z 0806/0906 27019KT 8000 -SHRA BKN015 BKN044 OVC100 TEMPO 0806/0816 26022G40KT 3000 +TSRA BKN015 FEW017CB FM081600 24012KT 9999 -SHRA SCT020 BKN100